<?xml version="1.0" encoding="UTF-8" standalone="no" ?>
<gpx xmlns="http://www.topografix.com/GPX/1/1" xmlns:xsi="http://www.w3.org/2001/XMLSchema-instance" xsi:schemaLocation="http://www.topografix.com/GPX/1/1 http://www.topografix.com/GPX/1/1/gpx.xsd" version="1.1" creator="VisuGPX - https://www.visugpx.com">
  <metadata>
    <name>LAINVILLE FOLLAINVILLE SAILLY </name>
    <desc><![CDATA[FAIT]]></desc>
  </metadata>
  <trk>
    <name><![CDATA[Lainville-Vétheuil-Follainville-Dennemont-Sailly-13901687]]></name>
    <extensions>
      <line xmlns="http://www.topografix.com/GPX/gpx_style/0/2">
        <color>0000FF</color>
        <width>4</width>
      </line>
    </extensions>
    <trkseg>
      <trkpt lat="49.06181" lon="1.81495">
        <ele>156</ele>
        <time>2023-06-05T19:54:24Z</time>
      </trkpt>
      <trkpt lat="49.06177" lon="1.81469">
        <ele>155</ele>
        <time>2023-06-05T19:54:47Z</time>
      </trkpt>
      <trkpt lat="49.06053" lon="1.81412">
        <ele>146</ele>
        <time>2023-06-05T19:57:40Z</time>
      </trkpt>
      <trkpt lat="49.06014" lon="1.81397">
        <ele>143</ele>
        <time>2023-06-05T19:58:34Z</time>
      </trkpt>
      <trkpt lat="49.0592" lon="1.81412">
        <ele>140</ele>
        <time>2023-06-05T20:00:40Z</time>
      </trkpt>
      <trkpt lat="49.05905" lon="1.81375">
        <ele>137</ele>
        <time>2023-06-05T20:01:18Z</time>
      </trkpt>
      <trkpt lat="49.05957" lon="1.81104">
        <ele>126</ele>
        <time>2023-06-05T20:05:25Z</time>
      </trkpt>
      <trkpt lat="49.05952" lon="1.8104">
        <ele>127</ele>
        <time>2023-06-05T20:06:21Z</time>
      </trkpt>
      <trkpt lat="49.05944" lon="1.80981">
        <ele>131</ele>
        <time>2023-06-05T20:07:14Z</time>
      </trkpt>
      <trkpt lat="49.05939" lon="1.80946">
        <ele>134</ele>
        <time>2023-06-05T20:07:45Z</time>
      </trkpt>
      <trkpt lat="49.05938" lon="1.80891">
        <ele>140</ele>
        <time>2023-06-05T20:08:33Z</time>
      </trkpt>
      <trkpt lat="49.05925" lon="1.80809">
        <ele>151</ele>
        <time>2023-06-05T20:09:47Z</time>
      </trkpt>
      <trkpt lat="49.0592" lon="1.80761">
        <ele>157</ele>
        <time>2023-06-05T20:10:30Z</time>
      </trkpt>
      <trkpt lat="49.05919" lon="1.80697">
        <ele>159</ele>
        <time>2023-06-05T20:11:26Z</time>
      </trkpt>
      <trkpt lat="49.05916" lon="1.80659">
        <ele>159</ele>
        <time>2023-06-05T20:11:59Z</time>
      </trkpt>
      <trkpt lat="49.05907" lon="1.80588">
        <ele>160</ele>
        <time>2023-06-05T20:13:02Z</time>
      </trkpt>
      <trkpt lat="49.05916" lon="1.80403">
        <ele>174</ele>
        <time>2023-06-05T20:15:45Z</time>
      </trkpt>
      <trkpt lat="49.05912" lon="1.80366">
        <ele>177</ele>
        <time>2023-06-05T20:16:17Z</time>
      </trkpt>
      <trkpt lat="49.05918" lon="1.80303">
        <ele>182</ele>
        <time>2023-06-05T20:17:13Z</time>
      </trkpt>
      <trkpt lat="49.05929" lon="1.80227">
        <ele>185</ele>
        <time>2023-06-05T20:18:21Z</time>
      </trkpt>
      <trkpt lat="49.05949" lon="1.80195">
        <ele>186</ele>
        <time>2023-06-05T20:19:00Z</time>
      </trkpt>
      <trkpt lat="49.05991" lon="1.80122">
        <ele>189</ele>
        <time>2023-06-05T20:20:25Z</time>
      </trkpt>
      <trkpt lat="49.06012" lon="1.80076">
        <ele>189</ele>
        <time>2023-06-05T20:21:14Z</time>
      </trkpt>
      <trkpt lat="49.06033" lon="1.80039">
        <ele>189</ele>
        <time>2023-06-05T20:21:57Z</time>
      </trkpt>
      <trkpt lat="49.06056" lon="1.80009">
        <ele>188</ele>
        <time>2023-06-05T20:22:37Z</time>
      </trkpt>
      <trkpt lat="49.06065" lon="1.80002">
        <ele>188</ele>
        <time>2023-06-05T20:22:50Z</time>
      </trkpt>
      <trkpt lat="49.06084" lon="1.79983">
        <ele>187</ele>
        <time>2023-06-05T20:23:21Z</time>
      </trkpt>
      <trkpt lat="49.0612" lon="1.79929">
        <ele>184</ele>
        <time>2023-06-05T20:24:28Z</time>
      </trkpt>
      <trkpt lat="49.0615" lon="1.79889">
        <ele>183</ele>
        <time>2023-06-05T20:25:21Z</time>
      </trkpt>
      <trkpt lat="49.06185" lon="1.79841">
        <ele>181</ele>
        <time>2023-06-05T20:26:24Z</time>
      </trkpt>
      <trkpt lat="49.06201" lon="1.79811">
        <ele>181</ele>
        <time>2023-06-05T20:26:58Z</time>
      </trkpt>
      <trkpt lat="49.06203" lon="1.79793">
        <ele>180</ele>
        <time>2023-06-05T20:27:14Z</time>
      </trkpt>
      <trkpt lat="49.06214" lon="1.79778">
        <ele>180</ele>
        <time>2023-06-05T20:27:34Z</time>
      </trkpt>
      <trkpt lat="49.06227" lon="1.79757">
        <ele>181</ele>
        <time>2023-06-05T20:27:59Z</time>
      </trkpt>
      <trkpt lat="49.06237" lon="1.79735">
        <ele>181</ele>
        <time>2023-06-05T20:28:22Z</time>
      </trkpt>
      <trkpt lat="49.0625" lon="1.79719">
        <ele>183</ele>
        <time>2023-06-05T20:28:44Z</time>
      </trkpt>
      <trkpt lat="49.06263" lon="1.79702">
        <ele>183</ele>
        <time>2023-06-05T20:29:07Z</time>
      </trkpt>
      <trkpt lat="49.06275" lon="1.7968">
        <ele>182</ele>
        <time>2023-06-05T20:29:32Z</time>
      </trkpt>
      <trkpt lat="49.06304" lon="1.79625">
        <ele>179</ele>
        <time>2023-06-05T20:30:34Z</time>
      </trkpt>
      <trkpt lat="49.06317" lon="1.79588">
        <ele>178</ele>
        <time>2023-06-05T20:31:11Z</time>
      </trkpt>
      <trkpt lat="49.06328" lon="1.79552">
        <ele>177</ele>
        <time>2023-06-05T20:31:46Z</time>
      </trkpt>
      <trkpt lat="49.0634" lon="1.7953">
        <ele>177</ele>
        <time>2023-06-05T20:32:11Z</time>
      </trkpt>
      <trkpt lat="49.06353" lon="1.79509">
        <ele>177</ele>
        <time>2023-06-05T20:32:36Z</time>
      </trkpt>
      <trkpt lat="49.06368" lon="1.79459">
        <ele>174</ele>
        <time>2023-06-05T20:33:24Z</time>
      </trkpt>
      <trkpt lat="49.06401" lon="1.7943">
        <ele>172</ele>
        <time>2023-06-05T20:34:15Z</time>
      </trkpt>
      <trkpt lat="49.06444" lon="1.79422">
        <ele>169</ele>
        <time>2023-06-05T20:35:13Z</time>
      </trkpt>
      <trkpt lat="49.06472" lon="1.79417">
        <ele>166</ele>
        <time>2023-06-05T20:35:50Z</time>
      </trkpt>
      <trkpt lat="49.06509" lon="1.79418">
        <ele>164</ele>
        <time>2023-06-05T20:36:40Z</time>
      </trkpt>
      <trkpt lat="49.06564" lon="1.79386">
        <ele>162</ele>
        <time>2023-06-05T20:37:58Z</time>
      </trkpt>
      <trkpt lat="49.06588" lon="1.79304">
        <ele>155</ele>
        <time>2023-06-05T20:39:17Z</time>
      </trkpt>
      <trkpt lat="49.06613" lon="1.79243">
        <ele>154</ele>
        <time>2023-06-05T20:40:19Z</time>
      </trkpt>
      <trkpt lat="49.06607" lon="1.79156">
        <ele>148</ele>
        <time>2023-06-05T20:41:36Z</time>
      </trkpt>
      <trkpt lat="49.06604" lon="1.79142">
        <ele>148</ele>
        <time>2023-06-05T20:41:49Z</time>
      </trkpt>
      <trkpt lat="49.06597" lon="1.79109">
        <ele>146</ele>
        <time>2023-06-05T20:42:19Z</time>
      </trkpt>
      <trkpt lat="49.06588" lon="1.79074">
        <ele>144</ele>
        <time>2023-06-05T20:42:52Z</time>
      </trkpt>
      <trkpt lat="49.06576" lon="1.79047">
        <ele>141</ele>
        <time>2023-06-05T20:43:21Z</time>
      </trkpt>
      <trkpt lat="49.06563" lon="1.79033">
        <ele>140</ele>
        <time>2023-06-05T20:43:42Z</time>
      </trkpt>
      <trkpt lat="49.06553" lon="1.7901">
        <ele>138</ele>
        <time>2023-06-05T20:44:06Z</time>
      </trkpt>
      <trkpt lat="49.06549" lon="1.78993">
        <ele>136</ele>
        <time>2023-06-05T20:44:22Z</time>
      </trkpt>
      <trkpt lat="49.06547" lon="1.78944">
        <ele>134</ele>
        <time>2023-06-05T20:45:05Z</time>
      </trkpt>
      <trkpt lat="49.06544" lon="1.78908">
        <ele>132</ele>
        <time>2023-06-05T20:45:36Z</time>
      </trkpt>
      <trkpt lat="49.06541" lon="1.7887">
        <ele>132</ele>
        <time>2023-06-05T20:46:10Z</time>
      </trkpt>
      <trkpt lat="49.06532" lon="1.78822">
        <ele>131</ele>
        <time>2023-06-05T20:46:54Z</time>
      </trkpt>
      <trkpt lat="49.06523" lon="1.78779">
        <ele>130</ele>
        <time>2023-06-05T20:47:33Z</time>
      </trkpt>
      <trkpt lat="49.06501" lon="1.78695">
        <ele>123</ele>
        <time>2023-06-05T20:48:52Z</time>
      </trkpt>
      <trkpt lat="49.06492" lon="1.78656">
        <ele>121</ele>
        <time>2023-06-05T20:49:28Z</time>
      </trkpt>
      <trkpt lat="49.06484" lon="1.78634">
        <ele>120</ele>
        <time>2023-06-05T20:49:50Z</time>
      </trkpt>
      <trkpt lat="49.06475" lon="1.78605">
        <ele>119</ele>
        <time>2023-06-05T20:50:18Z</time>
      </trkpt>
      <trkpt lat="49.06464" lon="1.78563">
        <ele>120</ele>
        <time>2023-06-05T20:50:58Z</time>
      </trkpt>
      <trkpt lat="49.06449" lon="1.78486">
        <ele>125</ele>
        <time>2023-06-05T20:52:08Z</time>
      </trkpt>
      <trkpt lat="49.06438" lon="1.78428">
        <ele>129</ele>
        <time>2023-06-05T20:53:01Z</time>
      </trkpt>
      <trkpt lat="49.06429" lon="1.78382">
        <ele>132</ele>
        <time>2023-06-05T20:53:43Z</time>
      </trkpt>
      <trkpt lat="49.06421" lon="1.78345">
        <ele>133</ele>
        <time>2023-06-05T20:54:17Z</time>
      </trkpt>
      <trkpt lat="49.06411" lon="1.78306">
        <ele>136</ele>
        <time>2023-06-05T20:54:54Z</time>
      </trkpt>
      <trkpt lat="49.06401" lon="1.78271">
        <ele>138</ele>
        <time>2023-06-05T20:55:27Z</time>
      </trkpt>
      <trkpt lat="49.06388" lon="1.78234">
        <ele>140</ele>
        <time>2023-06-05T20:56:04Z</time>
      </trkpt>
      <trkpt lat="49.06511" lon="1.78145">
        <ele>140</ele>
        <time>2023-06-05T20:59:05Z</time>
      </trkpt>
      <trkpt lat="49.06736" lon="1.77838">
        <ele>144</ele>
        <time>2023-06-05T21:05:48Z</time>
      </trkpt>
      <trkpt lat="49.06867" lon="1.77937">
        <ele>137</ele>
        <time>2023-06-05T21:09:03Z</time>
      </trkpt>
      <trkpt lat="49.07019" lon="1.78031">
        <ele>143</ele>
        <time>2023-06-05T21:12:42Z</time>
      </trkpt>
      <trkpt lat="49.07102" lon="1.78053">
        <ele>146</ele>
        <time>2023-06-05T21:14:34Z</time>
      </trkpt>
      <trkpt lat="49.07156" lon="1.7798">
        <ele>150</ele>
        <time>2023-06-05T21:16:11Z</time>
      </trkpt>
      <trkpt lat="49.07215" lon="1.77905">
        <ele>153</ele>
        <time>2023-06-05T21:17:53Z</time>
      </trkpt>
      <trkpt lat="49.07258" lon="1.77865">
        <ele>154</ele>
        <time>2023-06-05T21:19:00Z</time>
      </trkpt>
      <trkpt lat="49.07217" lon="1.77764">
        <ele>158</ele>
        <time>2023-06-05T21:20:44Z</time>
      </trkpt>
      <trkpt lat="49.07189" lon="1.77659">
        <ele>160</ele>
        <time>2023-06-05T21:22:23Z</time>
      </trkpt>
      <trkpt lat="49.07331" lon="1.77544">
        <ele>165</ele>
        <time>2023-06-05T21:25:58Z</time>
      </trkpt>
      <trkpt lat="49.07357" lon="1.77501">
        <ele>165</ele>
        <time>2023-06-05T21:26:49Z</time>
      </trkpt>
      <trkpt lat="49.07329" lon="1.77396">
        <ele>171</ele>
        <time>2023-06-05T21:28:28Z</time>
      </trkpt>
      <trkpt lat="49.07303" lon="1.77309">
        <ele>173</ele>
        <time>2023-06-05T21:29:52Z</time>
      </trkpt>
      <trkpt lat="49.07269" lon="1.77244">
        <ele>175</ele>
        <time>2023-06-05T21:31:04Z</time>
      </trkpt>
      <trkpt lat="49.07433" lon="1.76999">
        <ele>179</ele>
        <time>2023-06-05T21:36:11Z</time>
      </trkpt>
      <trkpt lat="49.07567" lon="1.77046">
        <ele>167</ele>
        <time>2023-06-05T21:39:14Z</time>
      </trkpt>
      <trkpt lat="49.07667" lon="1.77096">
        <ele>159</ele>
        <time>2023-06-05T21:41:34Z</time>
      </trkpt>
      <trkpt lat="49.07737" lon="1.77165">
        <ele>161</ele>
        <time>2023-06-05T21:43:26Z</time>
      </trkpt>
      <trkpt lat="49.0786" lon="1.7728">
        <ele>166</ele>
        <time>2023-06-05T21:46:38Z</time>
      </trkpt>
      <trkpt lat="49.07953" lon="1.77392">
        <ele>161</ele>
        <time>2023-06-05T21:49:16Z</time>
      </trkpt>
      <trkpt lat="49.08026" lon="1.77468">
        <ele>151</ele>
        <time>2023-06-05T21:51:14Z</time>
      </trkpt>
      <trkpt lat="49.08179" lon="1.77504">
        <ele>151</ele>
        <time>2023-06-05T21:54:41Z</time>
      </trkpt>
      <trkpt lat="49.08262" lon="1.77519">
        <ele>159</ele>
        <time>2023-06-05T21:56:32Z</time>
      </trkpt>
      <trkpt lat="49.08333" lon="1.77501">
        <ele>165</ele>
        <time>2023-06-05T21:58:08Z</time>
      </trkpt>
      <trkpt lat="49.08406" lon="1.7745">
        <ele>169</ele>
        <time>2023-06-05T21:59:55Z</time>
      </trkpt>
      <trkpt lat="49.08465" lon="1.77403">
        <ele>174</ele>
        <time>2023-06-05T22:01:24Z</time>
      </trkpt>
      <trkpt lat="49.0848" lon="1.7736">
        <ele>176</ele>
        <time>2023-06-05T22:02:07Z</time>
      </trkpt>
      <trkpt lat="49.08539" lon="1.77331">
        <ele>182</ele>
        <time>2023-06-05T22:03:29Z</time>
      </trkpt>
      <trkpt lat="49.08593" lon="1.77284">
        <ele>190</ele>
        <time>2023-06-05T22:04:52Z</time>
      </trkpt>
      <trkpt lat="49.08614" lon="1.77183">
        <ele>198</ele>
        <time>2023-06-05T22:06:25Z</time>
      </trkpt>
      <trkpt lat="49.08662" lon="1.77129">
        <ele>202</ele>
        <time>2023-06-05T22:07:45Z</time>
      </trkpt>
      <trkpt lat="49.08735" lon="1.771">
        <ele>203</ele>
        <time>2023-06-05T22:09:25Z</time>
      </trkpt>
      <trkpt lat="49.08808" lon="1.77067">
        <ele>204</ele>
        <time>2023-06-05T22:11:07Z</time>
      </trkpt>
      <trkpt lat="49.08777" lon="1.77003">
        <ele>205</ele>
        <time>2023-06-05T22:12:16Z</time>
      </trkpt>
      <trkpt lat="49.08735" lon="1.76894">
        <ele>203</ele>
        <time>2023-06-05T22:14:07Z</time>
      </trkpt>
      <trkpt lat="49.08716" lon="1.7684">
        <ele>204</ele>
        <time>2023-06-05T22:15:01Z</time>
      </trkpt>
      <trkpt lat="49.08716" lon="1.76573">
        <ele>204</ele>
        <time>2023-06-05T22:18:54Z</time>
      </trkpt>
      <trkpt lat="49.08707" lon="1.76508">
        <ele>204</ele>
        <time>2023-06-05T22:19:52Z</time>
      </trkpt>
      <trkpt lat="49.08681" lon="1.76411">
        <ele>204</ele>
        <time>2023-06-05T22:21:24Z</time>
      </trkpt>
      <trkpt lat="49.08681" lon="1.76349">
        <ele>206</ele>
        <time>2023-06-05T22:22:18Z</time>
      </trkpt>
      <trkpt lat="49.08721" lon="1.76104">
        <ele>207</ele>
        <time>2023-06-05T22:25:58Z</time>
      </trkpt>
      <trkpt lat="49.08733" lon="1.76025">
        <ele>210</ele>
        <time>2023-06-05T22:27:09Z</time>
      </trkpt>
      <trkpt lat="49.08742" lon="1.75938">
        <ele>214</ele>
        <time>2023-06-05T22:28:26Z</time>
      </trkpt>
      <trkpt lat="49.08747" lon="1.75851">
        <ele>215</ele>
        <time>2023-06-05T22:29:43Z</time>
      </trkpt>
      <trkpt lat="49.08756" lon="1.75757">
        <ele>215</ele>
        <time>2023-06-05T22:31:06Z</time>
      </trkpt>
      <trkpt lat="49.08775" lon="1.75674">
        <ele>215</ele>
        <time>2023-06-05T22:32:22Z</time>
      </trkpt>
      <trkpt lat="49.08829" lon="1.75646">
        <ele>215</ele>
        <time>2023-06-05T22:33:39Z</time>
      </trkpt>
      <trkpt lat="49.08796" lon="1.75591">
        <ele>215</ele>
        <time>2023-06-05T22:34:44Z</time>
      </trkpt>
      <trkpt lat="49.0877" lon="1.75519">
        <ele>213</ele>
        <time>2023-06-05T22:35:56Z</time>
      </trkpt>
      <trkpt lat="49.08699" lon="1.75433">
        <ele>209</ele>
        <time>2023-06-05T22:37:57Z</time>
      </trkpt>
      <trkpt lat="49.08669" lon="1.75422">
        <ele>208</ele>
        <time>2023-06-05T22:38:38Z</time>
      </trkpt>
      <trkpt lat="49.08612" lon="1.75389">
        <ele>206</ele>
        <time>2023-06-05T22:39:59Z</time>
      </trkpt>
      <trkpt lat="49.08553" lon="1.75335">
        <ele>206</ele>
        <time>2023-06-05T22:41:31Z</time>
      </trkpt>
      <trkpt lat="49.08437" lon="1.75324">
        <ele>206</ele>
        <time>2023-06-05T22:44:06Z</time>
      </trkpt>
      <trkpt lat="49.08326" lon="1.75281">
        <ele>202</ele>
        <time>2023-06-05T22:46:39Z</time>
      </trkpt>
      <trkpt lat="49.08288" lon="1.75259">
        <ele>201</ele>
        <time>2023-06-05T22:47:33Z</time>
      </trkpt>
      <trkpt lat="49.0826" lon="1.75241">
        <ele>200</ele>
        <time>2023-06-05T22:48:14Z</time>
      </trkpt>
      <trkpt lat="49.08187" lon="1.75166">
        <ele>189</ele>
        <time>2023-06-05T22:50:11Z</time>
      </trkpt>
      <trkpt lat="49.08179" lon="1.75112">
        <ele>187</ele>
        <time>2023-06-05T22:50:59Z</time>
      </trkpt>
      <trkpt lat="49.0817" lon="1.75018">
        <ele>183</ele>
        <time>2023-06-05T22:52:22Z</time>
      </trkpt>
      <trkpt lat="49.08153" lon="1.74924">
        <ele>177</ele>
        <time>2023-06-05T22:53:48Z</time>
      </trkpt>
      <trkpt lat="49.08116" lon="1.74844">
        <ele>170</ele>
        <time>2023-06-05T22:55:13Z</time>
      </trkpt>
      <trkpt lat="49.08052" lon="1.74747">
        <ele>159</ele>
        <time>2023-06-05T22:57:14Z</time>
      </trkpt>
      <trkpt lat="49.08031" lon="1.74686">
        <ele>153</ele>
        <time>2023-06-05T22:58:14Z</time>
      </trkpt>
      <trkpt lat="49.08031" lon="1.74595">
        <ele>148</ele>
        <time>2023-06-05T22:59:33Z</time>
      </trkpt>
      <trkpt lat="49.08054" lon="1.74491">
        <ele>148</ele>
        <time>2023-06-05T23:01:09Z</time>
      </trkpt>
      <trkpt lat="49.08132" lon="1.74256">
        <ele>160</ele>
        <time>2023-06-05T23:05:00Z</time>
      </trkpt>
      <trkpt lat="49.08153" lon="1.74166">
        <ele>166</ele>
        <time>2023-06-05T23:06:23Z</time>
      </trkpt>
      <trkpt lat="49.08144" lon="1.7409">
        <ele>171</ele>
        <time>2023-06-05T23:07:31Z</time>
      </trkpt>
      <trkpt lat="49.08106" lon="1.7391">
        <ele>178</ele>
        <time>2023-06-05T23:10:16Z</time>
      </trkpt>
      <trkpt lat="49.08049" lon="1.73845">
        <ele>172</ele>
        <time>2023-06-05T23:11:51Z</time>
      </trkpt>
      <trkpt lat="49.08116" lon="1.73726">
        <ele>171</ele>
        <time>2023-06-05T23:14:08Z</time>
      </trkpt>
      <trkpt lat="49.0817" lon="1.7365">
        <ele>170</ele>
        <time>2023-06-05T23:15:46Z</time>
      </trkpt>
      <trkpt lat="49.08189" lon="1.73592">
        <ele>169</ele>
        <time>2023-06-05T23:16:43Z</time>
      </trkpt>
      <trkpt lat="49.08187" lon="1.73473">
        <ele>162</ele>
        <time>2023-06-05T23:18:27Z</time>
      </trkpt>
      <trkpt lat="49.08203" lon="1.7334">
        <ele>158</ele>
        <time>2023-06-05T23:20:25Z</time>
      </trkpt>
      <trkpt lat="49.08227" lon="1.7313">
        <ele>147</ele>
        <time>2023-06-05T23:23:31Z</time>
      </trkpt>
      <trkpt lat="49.08369" lon="1.73127">
        <ele>151</ele>
        <time>2023-06-05T23:26:41Z</time>
      </trkpt>
      <trkpt lat="49.08484" lon="1.73101">
        <ele>148</ele>
        <time>2023-06-05T23:29:16Z</time>
      </trkpt>
      <trkpt lat="49.08574" lon="1.73022">
        <ele>145</ele>
        <time>2023-06-05T23:31:34Z</time>
      </trkpt>
      <trkpt lat="49.08567" lon="1.72964">
        <ele>142</ele>
        <time>2023-06-05T23:32:26Z</time>
      </trkpt>
      <trkpt lat="49.08543" lon="1.72917">
        <ele>140</ele>
        <time>2023-06-05T23:33:18Z</time>
      </trkpt>
      <trkpt lat="49.08541" lon="1.72838">
        <ele>135</ele>
        <time>2023-06-05T23:34:27Z</time>
      </trkpt>
      <trkpt lat="49.08534" lon="1.72773">
        <ele>134</ele>
        <time>2023-06-05T23:35:25Z</time>
      </trkpt>
      <trkpt lat="49.08525" lon="1.72683">
        <ele>134</ele>
        <time>2023-06-05T23:36:44Z</time>
      </trkpt>
      <trkpt lat="49.08553" lon="1.72567">
        <ele>139</ele>
        <time>2023-06-05T23:38:32Z</time>
      </trkpt>
      <trkpt lat="49.08607" lon="1.72336">
        <ele>144</ele>
        <time>2023-06-05T23:42:07Z</time>
      </trkpt>
      <trkpt lat="49.08621" lon="1.72225">
        <ele>143</ele>
        <time>2023-06-05T23:43:45Z</time>
      </trkpt>
      <trkpt lat="49.08629" lon="1.72087">
        <ele>148</ele>
        <time>2023-06-05T23:45:47Z</time>
      </trkpt>
      <trkpt lat="49.08541" lon="1.72055">
        <ele>146</ele>
        <time>2023-06-05T23:47:47Z</time>
      </trkpt>
      <trkpt lat="49.08491" lon="1.72033">
        <ele>146</ele>
        <time>2023-06-05T23:48:57Z</time>
      </trkpt>
      <trkpt lat="49.08428" lon="1.71943">
        <ele>147</ele>
        <time>2023-06-05T23:50:52Z</time>
      </trkpt>
      <trkpt lat="49.08359" lon="1.71874">
        <ele>146</ele>
        <time>2023-06-05T23:52:42Z</time>
      </trkpt>
      <trkpt lat="49.08269" lon="1.71813">
        <ele>143</ele>
        <time>2023-06-05T23:54:53Z</time>
      </trkpt>
      <trkpt lat="49.08213" lon="1.71752">
        <ele>141</ele>
        <time>2023-06-05T23:56:25Z</time>
      </trkpt>
      <trkpt lat="49.08165" lon="1.71669">
        <ele>142</ele>
        <time>2023-06-05T23:58:02Z</time>
      </trkpt>
      <trkpt lat="49.08002" lon="1.71499">
        <ele>140</ele>
        <time>2023-06-06T00:02:25Z</time>
      </trkpt>
      <trkpt lat="49.07929" lon="1.71478">
        <ele>139</ele>
        <time>2023-06-06T00:04:04Z</time>
      </trkpt>
      <trkpt lat="49.07728" lon="1.71387">
        <ele>136</ele>
        <time>2023-06-06T00:08:44Z</time>
      </trkpt>
      <trkpt lat="49.07579" lon="1.71312">
        <ele>134</ele>
        <time>2023-06-06T00:12:14Z</time>
      </trkpt>
      <trkpt lat="49.07477" lon="1.71268">
        <ele>131</ele>
        <time>2023-06-06T00:14:35Z</time>
      </trkpt>
      <trkpt lat="49.07144" lon="1.71099">
        <ele>124</ele>
        <time>2023-06-06T00:22:23Z</time>
      </trkpt>
      <trkpt lat="49.07038" lon="1.70998">
        <ele>120</ele>
        <time>2023-06-06T00:25:10Z</time>
      </trkpt>
      <trkpt lat="49.07" lon="1.70976">
        <ele>117</ele>
        <time>2023-06-06T00:26:04Z</time>
      </trkpt>
      <trkpt lat="49.06915" lon="1.7085">
        <ele>99</ele>
        <time>2023-06-06T00:28:42Z</time>
      </trkpt>
      <trkpt lat="49.06853" lon="1.70795">
        <ele>89</ele>
        <time>2023-06-06T00:30:18Z</time>
      </trkpt>
      <trkpt lat="49.06794" lon="1.70741">
        <ele>81</ele>
        <time>2023-06-06T00:31:50Z</time>
      </trkpt>
      <trkpt lat="49.06749" lon="1.70705">
        <ele>76</ele>
        <time>2023-06-06T00:32:58Z</time>
      </trkpt>
      <trkpt lat="49.06667" lon="1.70633">
        <ele>62</ele>
        <time>2023-06-06T00:35:04Z</time>
      </trkpt>
      <trkpt lat="49.06581" lon="1.70633">
        <ele>51</ele>
        <time>2023-06-06T00:36:59Z</time>
      </trkpt>
      <trkpt lat="49.06463" lon="1.70487">
        <ele>29</ele>
        <time>2023-06-06T00:40:21Z</time>
      </trkpt>
      <trkpt lat="49.06378" lon="1.704">
        <ele>30</ele>
        <time>2023-06-06T00:42:38Z</time>
      </trkpt>
      <trkpt lat="49.06321" lon="1.70177">
        <ele>29</ele>
        <time>2023-06-06T00:46:07Z</time>
      </trkpt>
      <trkpt lat="49.06198" lon="1.70097">
        <ele>32</ele>
        <time>2023-06-06T00:49:06Z</time>
      </trkpt>
      <trkpt lat="49.06075" lon="1.70097">
        <ele>35</ele>
        <time>2023-06-06T00:51:50Z</time>
      </trkpt>
      <trkpt lat="49.05986" lon="1.70119">
        <ele>42</ele>
        <time>2023-06-06T00:53:50Z</time>
      </trkpt>
      <trkpt lat="49.0573" lon="1.7009">
        <ele>53</ele>
        <time>2023-06-06T00:59:33Z</time>
      </trkpt>
      <trkpt lat="49.05645" lon="1.70047">
        <ele>48</ele>
        <time>2023-06-06T01:01:32Z</time>
      </trkpt>
      <trkpt lat="49.05432" lon="1.6996">
        <ele>53</ele>
        <time>2023-06-06T01:06:26Z</time>
      </trkpt>
      <trkpt lat="49.05323" lon="1.69902">
        <ele>58</ele>
        <time>2023-06-06T01:09:01Z</time>
      </trkpt>
      <trkpt lat="49.0521" lon="1.69801">
        <ele>53</ele>
        <time>2023-06-06T01:11:55Z</time>
      </trkpt>
      <trkpt lat="49.05106" lon="1.69736">
        <ele>53</ele>
        <time>2023-06-06T01:14:25Z</time>
      </trkpt>
      <trkpt lat="49.05021" lon="1.697">
        <ele>58</ele>
        <time>2023-06-06T01:16:23Z</time>
      </trkpt>
      <trkpt lat="49.04888" lon="1.69657">
        <ele>63</ele>
        <time>2023-06-06T01:19:24Z</time>
      </trkpt>
      <trkpt lat="49.04765" lon="1.69614">
        <ele>65</ele>
        <time>2023-06-06T01:22:13Z</time>
      </trkpt>
      <trkpt lat="49.04661" lon="1.69513">
        <ele>64</ele>
        <time>2023-06-06T01:24:57Z</time>
      </trkpt>
      <trkpt lat="49.04557" lon="1.69354">
        <ele>59</ele>
        <time>2023-06-06T01:28:14Z</time>
      </trkpt>
      <trkpt lat="49.04448" lon="1.69289">
        <ele>62</ele>
        <time>2023-06-06T01:30:50Z</time>
      </trkpt>
      <trkpt lat="49.04335" lon="1.69195">
        <ele>63</ele>
        <time>2023-06-06T01:33:42Z</time>
      </trkpt>
      <trkpt lat="49.04216" lon="1.69188">
        <ele>72</ele>
        <time>2023-06-06T01:36:21Z</time>
      </trkpt>
      <trkpt lat="49.04141" lon="1.69123">
        <ele>69</ele>
        <time>2023-06-06T01:38:16Z</time>
      </trkpt>
      <trkpt lat="49.04051" lon="1.68993">
        <ele>61</ele>
        <time>2023-06-06T01:41:01Z</time>
      </trkpt>
      <trkpt lat="49.03937" lon="1.69238">
        <ele>79</ele>
        <time>2023-06-06T01:45:24Z</time>
      </trkpt>
      <trkpt lat="49.03828" lon="1.69462">
        <ele>99</ele>
        <time>2023-06-06T01:49:28Z</time>
      </trkpt>
      <trkpt lat="49.038" lon="1.69722">
        <ele>114</ele>
        <time>2023-06-06T01:53:19Z</time>
      </trkpt>
      <trkpt lat="49.03753" lon="1.69902">
        <ele>118</ele>
        <time>2023-06-06T01:56:08Z</time>
      </trkpt>
      <trkpt lat="49.03658" lon="1.70104">
        <ele>112</ele>
        <time>2023-06-06T01:59:46Z</time>
      </trkpt>
      <trkpt lat="49.03568" lon="1.70263">
        <ele>104</ele>
        <time>2023-06-06T02:02:49Z</time>
      </trkpt>
      <trkpt lat="49.03497" lon="1.70328">
        <ele>99</ele>
        <time>2023-06-06T02:04:40Z</time>
      </trkpt>
      <trkpt lat="49.03488" lon="1.70509">
        <ele>94</ele>
        <time>2023-06-06T02:07:19Z</time>
      </trkpt>
      <trkpt lat="49.03436" lon="1.70631">
        <ele>88</ele>
        <time>2023-06-06T02:09:26Z</time>
      </trkpt>
      <trkpt lat="49.03379" lon="1.70675">
        <ele>84</ele>
        <time>2023-06-06T02:10:51Z</time>
      </trkpt>
      <trkpt lat="49.03294" lon="1.70776">
        <ele>81</ele>
        <time>2023-06-06T02:13:15Z</time>
      </trkpt>
      <trkpt lat="49.03185" lon="1.70595">
        <ele>75</ele>
        <time>2023-06-06T02:16:50Z</time>
      </trkpt>
      <trkpt lat="49.03105" lon="1.70436">
        <ele>71</ele>
        <time>2023-06-06T02:19:45Z</time>
      </trkpt>
      <trkpt lat="49.03019" lon="1.70263">
        <ele>67</ele>
        <time>2023-06-06T02:22:55Z</time>
      </trkpt>
      <trkpt lat="49.02934" lon="1.70112">
        <ele>61</ele>
        <time>2023-06-06T02:25:49Z</time>
      </trkpt>
      <trkpt lat="49.0284" lon="1.70025">
        <ele>59</ele>
        <time>2023-06-06T02:28:16Z</time>
      </trkpt>
      <trkpt lat="49.02683" lon="1.70011">
        <ele>57</ele>
        <time>2023-06-06T02:31:46Z</time>
      </trkpt>
      <trkpt lat="49.02527" lon="1.70068">
        <ele>53</ele>
        <time>2023-06-06T02:35:20Z</time>
      </trkpt>
      <trkpt lat="49.02447" lon="1.70083">
        <ele>50</ele>
        <time>2023-06-06T02:37:08Z</time>
      </trkpt>
      <trkpt lat="49.02409" lon="1.70299">
        <ele>59</ele>
        <time>2023-06-06T02:40:23Z</time>
      </trkpt>
      <trkpt lat="49.0239" lon="1.70595">
        <ele>64</ele>
        <time>2023-06-06T02:44:44Z</time>
      </trkpt>
      <trkpt lat="49.0238" lon="1.70862">
        <ele>73</ele>
        <time>2023-06-06T02:48:38Z</time>
      </trkpt>
      <trkpt lat="49.02362" lon="1.70978">
        <ele>82</ele>
        <time>2023-06-06T02:50:22Z</time>
      </trkpt>
      <trkpt lat="49.02238" lon="1.70999">
        <ele>91</ele>
        <time>2023-06-06T02:53:08Z</time>
      </trkpt>
      <trkpt lat="49.02167" lon="1.70971">
        <ele>99</ele>
        <time>2023-06-06T02:54:46Z</time>
      </trkpt>
      <trkpt lat="49.02113" lon="1.70915">
        <ele>111</ele>
        <time>2023-06-06T02:56:13Z</time>
      </trkpt>
      <trkpt lat="49.02066" lon="1.70893">
        <ele>120</ele>
        <time>2023-06-06T02:57:19Z</time>
      </trkpt>
      <trkpt lat="49.02023" lon="1.70857">
        <ele>127</ele>
        <time>2023-06-06T02:58:25Z</time>
      </trkpt>
      <trkpt lat="49.0203" lon="1.70767">
        <ele>127</ele>
        <time>2023-06-06T02:59:44Z</time>
      </trkpt>
      <trkpt lat="49.02035" lon="1.70702">
        <ele>123</ele>
        <time>2023-06-06T03:00:41Z</time>
      </trkpt>
      <trkpt lat="49.02018" lon="1.70666">
        <ele>124</ele>
        <time>2023-06-06T03:01:20Z</time>
      </trkpt>
      <trkpt lat="49.02028" lon="1.70561">
        <ele>111</ele>
        <time>2023-06-06T03:02:53Z</time>
      </trkpt>
      <trkpt lat="49.02011" lon="1.7046">
        <ele>104</ele>
        <time>2023-06-06T03:04:24Z</time>
      </trkpt>
      <trkpt lat="49.01999" lon="1.70406">
        <ele>101</ele>
        <time>2023-06-06T03:05:14Z</time>
      </trkpt>
      <trkpt lat="49.01964" lon="1.7033">
        <ele>97</ele>
        <time>2023-06-06T03:06:35Z</time>
      </trkpt>
      <trkpt lat="49.01891" lon="1.70243">
        <ele>95</ele>
        <time>2023-06-06T03:08:39Z</time>
      </trkpt>
      <trkpt lat="49.01893" lon="1.70164">
        <ele>80</ele>
        <time>2023-06-06T03:09:48Z</time>
      </trkpt>
      <trkpt lat="49.01872" lon="1.70121">
        <ele>75</ele>
        <time>2023-06-06T03:10:35Z</time>
      </trkpt>
      <trkpt lat="49.01895" lon="1.70012">
        <ele>55</ele>
        <time>2023-06-06T03:12:15Z</time>
      </trkpt>
      <trkpt lat="49.01824" lon="1.6994">
        <ele>54</ele>
        <time>2023-06-06T03:14:09Z</time>
      </trkpt>
      <trkpt lat="49.01784" lon="1.69919">
        <ele>54</ele>
        <time>2023-06-06T03:15:05Z</time>
      </trkpt>
      <trkpt lat="49.01734" lon="1.69911">
        <ele>56</ele>
        <time>2023-06-06T03:16:12Z</time>
      </trkpt>
      <trkpt lat="49.01647" lon="1.69879">
        <ele>54</ele>
        <time>2023-06-06T03:18:12Z</time>
      </trkpt>
      <trkpt lat="49.01578" lon="1.69875">
        <ele>57</ele>
        <time>2023-06-06T03:19:44Z</time>
      </trkpt>
      <trkpt lat="49.01516" lon="1.69872">
        <ele>55</ele>
        <time>2023-06-06T03:21:07Z</time>
      </trkpt>
      <trkpt lat="49.01449" lon="1.69887">
        <ele>54</ele>
        <time>2023-06-06T03:22:37Z</time>
      </trkpt>
      <trkpt lat="49.01459" lon="1.69957">
        <ele>66</ele>
        <time>2023-06-06T03:23:40Z</time>
      </trkpt>
      <trkpt lat="49.01439" lon="1.69996">
        <ele>72</ele>
        <time>2023-06-06T03:24:23Z</time>
      </trkpt>
      <trkpt lat="49.01377" lon="1.70112">
        <ele>82</ele>
        <time>2023-06-06T03:26:34Z</time>
      </trkpt>
      <trkpt lat="49.0134" lon="1.70199">
        <ele>86</ele>
        <time>2023-06-06T03:28:05Z</time>
      </trkpt>
      <trkpt lat="49.01336" lon="1.70242">
        <ele>90</ele>
        <time>2023-06-06T03:28:43Z</time>
      </trkpt>
      <trkpt lat="49.01352" lon="1.70313">
        <ele>101</ele>
        <time>2023-06-06T03:29:49Z</time>
      </trkpt>
      <trkpt lat="49.01358" lon="1.70349">
        <ele>105</ele>
        <time>2023-06-06T03:30:21Z</time>
      </trkpt>
      <trkpt lat="49.01339" lon="1.70425">
        <ele>110</ele>
        <time>2023-06-06T03:31:32Z</time>
      </trkpt>
      <trkpt lat="49.01336" lon="1.70495">
        <ele>111</ele>
        <time>2023-06-06T03:32:34Z</time>
      </trkpt>
      <trkpt lat="49.01336" lon="1.70592">
        <ele>112</ele>
        <time>2023-06-06T03:33:59Z</time>
      </trkpt>
      <trkpt lat="49.01366" lon="1.70665">
        <ele>113</ele>
        <time>2023-06-06T03:35:14Z</time>
      </trkpt>
      <trkpt lat="49.01405" lon="1.70731">
        <ele>117</ele>
        <time>2023-06-06T03:36:32Z</time>
      </trkpt>
      <trkpt lat="49.01442" lon="1.70787">
        <ele>123</ele>
        <time>2023-06-06T03:37:41Z</time>
      </trkpt>
      <trkpt lat="49.01554" lon="1.70894">
        <ele>132</ele>
        <time>2023-06-06T03:40:38Z</time>
      </trkpt>
      <trkpt lat="49.01639" lon="1.70995">
        <ele>135</ele>
        <time>2023-06-06T03:43:02Z</time>
      </trkpt>
      <trkpt lat="49.01682" lon="1.71024">
        <ele>134</ele>
        <time>2023-06-06T03:44:04Z</time>
      </trkpt>
      <trkpt lat="49.01712" lon="1.71067">
        <ele>132</ele>
        <time>2023-06-06T03:44:59Z</time>
      </trkpt>
      <trkpt lat="49.01758" lon="1.71109">
        <ele>131</ele>
        <time>2023-06-06T03:46:11Z</time>
      </trkpt>
      <trkpt lat="49.01821" lon="1.71157">
        <ele>129</ele>
        <time>2023-06-06T03:47:45Z</time>
      </trkpt>
      <trkpt lat="49.01833" lon="1.71172">
        <ele>129</ele>
        <time>2023-06-06T03:48:06Z</time>
      </trkpt>
      <trkpt lat="49.01911" lon="1.71222">
        <ele>125</ele>
        <time>2023-06-06T03:49:58Z</time>
      </trkpt>
      <trkpt lat="49.01906" lon="1.71281">
        <ele>125</ele>
        <time>2023-06-06T03:50:50Z</time>
      </trkpt>
      <trkpt lat="49.019" lon="1.71313">
        <ele>125</ele>
        <time>2023-06-06T03:51:20Z</time>
      </trkpt>
      <trkpt lat="49.01916" lon="1.71389">
        <ele>124</ele>
        <time>2023-06-06T03:52:29Z</time>
      </trkpt>
      <trkpt lat="49.0194" lon="1.71369">
        <ele>122</ele>
        <time>2023-06-06T03:53:06Z</time>
      </trkpt>
      <trkpt lat="49.01967" lon="1.71335">
        <ele>119</ele>
        <time>2023-06-06T03:53:53Z</time>
      </trkpt>
      <trkpt lat="49.01997" lon="1.7132">
        <ele>115</ele>
        <time>2023-06-06T03:54:35Z</time>
      </trkpt>
      <trkpt lat="49.02024" lon="1.71323">
        <ele>114</ele>
        <time>2023-06-06T03:55:11Z</time>
      </trkpt>
      <trkpt lat="49.0206" lon="1.71355">
        <ele>115</ele>
        <time>2023-06-06T03:56:07Z</time>
      </trkpt>
      <trkpt lat="49.02096" lon="1.71378">
        <ele>116</ele>
        <time>2023-06-06T03:56:59Z</time>
      </trkpt>
      <trkpt lat="49.02112" lon="1.71399">
        <ele>118</ele>
        <time>2023-06-06T03:57:27Z</time>
      </trkpt>
      <trkpt lat="49.02136" lon="1.71431">
        <ele>121</ele>
        <time>2023-06-06T03:58:09Z</time>
      </trkpt>
      <trkpt lat="49.02155" lon="1.71402">
        <ele>122</ele>
        <time>2023-06-06T03:58:45Z</time>
      </trkpt>
      <trkpt lat="49.02195" lon="1.71449">
        <ele>123</ele>
        <time>2023-06-06T03:59:53Z</time>
      </trkpt>
      <trkpt lat="49.02236" lon="1.7151">
        <ele>125</ele>
        <time>2023-06-06T04:01:09Z</time>
      </trkpt>
      <trkpt lat="49.02341" lon="1.71651">
        <ele>128</ele>
        <time>2023-06-06T04:04:16Z</time>
      </trkpt>
      <trkpt lat="49.0242" lon="1.71768">
        <ele>132</ele>
        <time>2023-06-06T04:06:43Z</time>
      </trkpt>
      <trkpt lat="49.02428" lon="1.71801">
        <ele>134</ele>
        <time>2023-06-06T04:07:13Z</time>
      </trkpt>
      <trkpt lat="49.0261" lon="1.72287">
        <ele>145</ele>
        <time>2023-06-06T04:15:23Z</time>
      </trkpt>
      <trkpt lat="49.02678" lon="1.7249">
        <ele>147</ele>
        <time>2023-06-06T04:18:43Z</time>
      </trkpt>
      <trkpt lat="49.02886" lon="1.73105">
        <ele>143</ele>
        <time>2023-06-06T04:28:48Z</time>
      </trkpt>
      <trkpt lat="49.02918" lon="1.73206">
        <ele>141</ele>
        <time>2023-06-06T04:30:26Z</time>
      </trkpt>
      <trkpt lat="49.02886" lon="1.73321">
        <ele>138</ele>
        <time>2023-06-06T04:32:16Z</time>
      </trkpt>
      <trkpt lat="49.0285" lon="1.73428">
        <ele>135</ele>
        <time>2023-06-06T04:34:01Z</time>
      </trkpt>
      <trkpt lat="49.02792" lon="1.73599">
        <ele>130</ele>
        <time>2023-06-06T04:36:49Z</time>
      </trkpt>
      <trkpt lat="49.02793" lon="1.73729">
        <ele>130</ele>
        <time>2023-06-06T04:38:43Z</time>
      </trkpt>
      <trkpt lat="49.02785" lon="1.73806">
        <ele>129</ele>
        <time>2023-06-06T04:39:51Z</time>
      </trkpt>
      <trkpt lat="49.02767" lon="1.7391">
        <ele>129</ele>
        <time>2023-06-06T04:41:25Z</time>
      </trkpt>
      <trkpt lat="49.02743" lon="1.73982">
        <ele>130</ele>
        <time>2023-06-06T04:42:36Z</time>
      </trkpt>
      <trkpt lat="49.02715" lon="1.74058">
        <ele>128</ele>
        <time>2023-06-06T04:43:52Z</time>
      </trkpt>
      <trkpt lat="49.0269" lon="1.74097">
        <ele>127</ele>
        <time>2023-06-06T04:44:40Z</time>
      </trkpt>
      <trkpt lat="49.02641" lon="1.74153">
        <ele>125</ele>
        <time>2023-06-06T04:46:02Z</time>
      </trkpt>
      <trkpt lat="49.02596" lon="1.74194">
        <ele>123</ele>
        <time>2023-06-06T04:47:12Z</time>
      </trkpt>
      <trkpt lat="49.02514" lon="1.74347">
        <ele>115</ele>
        <time>2023-06-06T04:50:05Z</time>
      </trkpt>
      <trkpt lat="49.02691" lon="1.74686">
        <ele>95</ele>
        <time>2023-06-06T04:56:24Z</time>
      </trkpt>
      <trkpt lat="49.02718" lon="1.74814">
        <ele>104</ele>
        <time>2023-06-06T04:58:22Z</time>
      </trkpt>
      <trkpt lat="49.02742" lon="1.74972">
        <ele>116</ele>
        <time>2023-06-06T05:00:43Z</time>
      </trkpt>
      <trkpt lat="49.02718" lon="1.75075">
        <ele>113</ele>
        <time>2023-06-06T05:02:19Z</time>
      </trkpt>
      <trkpt lat="49.02746" lon="1.75172">
        <ele>114</ele>
        <time>2023-06-06T05:03:52Z</time>
      </trkpt>
      <trkpt lat="49.02702" lon="1.75263">
        <ele>108</ele>
        <time>2023-06-06T05:05:31Z</time>
      </trkpt>
      <trkpt lat="49.02615" lon="1.75421">
        <ele>108</ele>
        <time>2023-06-06T05:08:31Z</time>
      </trkpt>
      <trkpt lat="49.02547" lon="1.75469">
        <ele>109</ele>
        <time>2023-06-06T05:10:11Z</time>
      </trkpt>
      <trkpt lat="49.02484" lon="1.75585">
        <ele>110</ele>
        <time>2023-06-06T05:12:23Z</time>
      </trkpt>
      <trkpt lat="49.02424" lon="1.75779">
        <ele>107</ele>
        <time>2023-06-06T05:15:31Z</time>
      </trkpt>
      <trkpt lat="49.02583" lon="1.75888">
        <ele>114</ele>
        <time>2023-06-06T05:19:23Z</time>
      </trkpt>
      <trkpt lat="49.02818" lon="1.76113">
        <ele>127</ele>
        <time>2023-06-06T05:25:34Z</time>
      </trkpt>
      <trkpt lat="49.02874" lon="1.76185">
        <ele>130</ele>
        <time>2023-06-06T05:27:11Z</time>
      </trkpt>
      <trkpt lat="49.02929" lon="1.76513">
        <ele>132</ele>
        <time>2023-06-06T05:32:08Z</time>
      </trkpt>
      <trkpt lat="49.02957" lon="1.76738">
        <ele>131</ele>
        <time>2023-06-06T05:35:28Z</time>
      </trkpt>
      <trkpt lat="49.02989" lon="1.77229">
        <ele>130</ele>
        <time>2023-06-06T05:42:40Z</time>
      </trkpt>
      <trkpt lat="49.03088" lon="1.77369">
        <ele>133</ele>
        <time>2023-06-06T05:45:40Z</time>
      </trkpt>
      <trkpt lat="49.03371" lon="1.77193">
        <ele>144</ele>
        <time>2023-06-06T05:52:28Z</time>
      </trkpt>
      <trkpt lat="49.03427" lon="1.77108">
        <ele>151</ele>
        <time>2023-06-06T05:54:13Z</time>
      </trkpt>
      <trkpt lat="49.03697" lon="1.77235">
        <ele>165</ele>
        <time>2023-06-06T06:00:30Z</time>
      </trkpt>
      <trkpt lat="49.03821" lon="1.7726">
        <ele>163</ele>
        <time>2023-06-06T06:03:17Z</time>
      </trkpt>
      <trkpt lat="49.0392" lon="1.77527">
        <ele>147</ele>
        <time>2023-06-06T06:07:45Z</time>
      </trkpt>
      <trkpt lat="49.04004" lon="1.77504">
        <ele>143</ele>
        <time>2023-06-06T06:09:39Z</time>
      </trkpt>
      <trkpt lat="49.04115" lon="1.77414">
        <ele>138</ele>
        <time>2023-06-06T06:12:27Z</time>
      </trkpt>
      <trkpt lat="49.0428" lon="1.77584">
        <ele>134</ele>
        <time>2023-06-06T06:16:53Z</time>
      </trkpt>
      <trkpt lat="49.04505" lon="1.77825">
        <ele>132</ele>
        <time>2023-06-06T06:23:00Z</time>
      </trkpt>
      <trkpt lat="49.04708" lon="1.78002">
        <ele>130</ele>
        <time>2023-06-06T06:28:12Z</time>
      </trkpt>
      <trkpt lat="49.04782" lon="1.78024">
        <ele>132</ele>
        <time>2023-06-06T06:29:52Z</time>
      </trkpt>
      <trkpt lat="49.04822" lon="1.78125">
        <ele>141</ele>
        <time>2023-06-06T06:31:36Z</time>
      </trkpt>
      <trkpt lat="49.04881" lon="1.78201">
        <ele>144</ele>
        <time>2023-06-06T06:33:19Z</time>
      </trkpt>
      <trkpt lat="49.04954" lon="1.78273">
        <ele>145</ele>
        <time>2023-06-06T06:35:15Z</time>
      </trkpt>
      <trkpt lat="49.04902" lon="1.78426">
        <ele>143</ele>
        <time>2023-06-06T06:37:45Z</time>
      </trkpt>
      <trkpt lat="49.0486" lon="1.78578">
        <ele>140</ele>
        <time>2023-06-06T06:40:10Z</time>
      </trkpt>
      <trkpt lat="49.04813" lon="1.78729">
        <ele>135</ele>
        <time>2023-06-06T06:42:36Z</time>
      </trkpt>
      <trkpt lat="49.04604" lon="1.78924">
        <ele>122</ele>
        <time>2023-06-06T06:48:03Z</time>
      </trkpt>
      <trkpt lat="49.04406" lon="1.78859">
        <ele>118</ele>
        <time>2023-06-06T06:52:33Z</time>
      </trkpt>
      <trkpt lat="49.04084" lon="1.78953">
        <ele>128</ele>
        <time>2023-06-06T06:59:50Z</time>
      </trkpt>
      <trkpt lat="49.03545" lon="1.79451">
        <ele>132</ele>
        <time>2023-06-06T07:13:51Z</time>
      </trkpt>
      <trkpt lat="49.03871" lon="1.79805">
        <ele>110</ele>
        <time>2023-06-06T07:22:45Z</time>
      </trkpt>
      <trkpt lat="49.03975" lon="1.79942">
        <ele>94</ele>
        <time>2023-06-06T07:25:49Z</time>
      </trkpt>
      <trkpt lat="49.03989" lon="1.8005">
        <ele>90</ele>
        <time>2023-06-06T07:27:25Z</time>
      </trkpt>
      <trkpt lat="49.0415" lon="1.80144">
        <ele>96</ele>
        <time>2023-06-06T07:31:15Z</time>
      </trkpt>
      <trkpt lat="49.04164" lon="1.80231">
        <ele>102</ele>
        <time>2023-06-06T07:32:34Z</time>
      </trkpt>
      <trkpt lat="49.04254" lon="1.80382">
        <ele>117</ele>
        <time>2023-06-06T07:35:32Z</time>
      </trkpt>
      <trkpt lat="49.04391" lon="1.80498">
        <ele>128</ele>
        <time>2023-06-06T07:39:01Z</time>
      </trkpt>
      <trkpt lat="49.045" lon="1.8062">
        <ele>146</ele>
        <time>2023-06-06T07:42:02Z</time>
      </trkpt>
      <trkpt lat="49.04567" lon="1.80801">
        <ele>153</ele>
        <time>2023-06-06T07:45:03Z</time>
      </trkpt>
      <trkpt lat="49.04661" lon="1.80945">
        <ele>164</ele>
        <time>2023-06-06T07:48:01Z</time>
      </trkpt>
      <trkpt lat="49.04831" lon="1.8101">
        <ele>160</ele>
        <time>2023-06-06T07:51:55Z</time>
      </trkpt>
      <trkpt lat="49.0495" lon="1.81169">
        <ele>145</ele>
        <time>2023-06-06T07:55:26Z</time>
      </trkpt>
      <trkpt lat="49.05087" lon="1.81089">
        <ele>125</ele>
        <time>2023-06-06T07:58:42Z</time>
      </trkpt>
      <trkpt lat="49.0521" lon="1.81061">
        <ele>129</ele>
        <time>2023-06-06T08:01:28Z</time>
      </trkpt>
      <trkpt lat="49.05314" lon="1.81227">
        <ele>126</ele>
        <time>2023-06-06T08:04:49Z</time>
      </trkpt>
      <trkpt lat="49.05314" lon="1.814">
        <ele>116</ele>
        <time>2023-06-06T08:07:20Z</time>
      </trkpt>
      <trkpt lat="49.05295" lon="1.81544">
        <ele>107</ele>
        <time>2023-06-06T08:09:28Z</time>
      </trkpt>
      <trkpt lat="49.05432" lon="1.81515">
        <ele>110</ele>
        <time>2023-06-06T08:12:33Z</time>
      </trkpt>
      <trkpt lat="49.05584" lon="1.81522">
        <ele>119</ele>
        <time>2023-06-06T08:15:56Z</time>
      </trkpt>
      <trkpt lat="49.05692" lon="1.81457">
        <ele>124</ele>
        <time>2023-06-06T08:18:31Z</time>
      </trkpt>
      <trkpt lat="49.05863" lon="1.81436">
        <ele>136</ele>
        <time>2023-06-06T08:22:20Z</time>
      </trkpt>
      <trkpt lat="49.05911" lon="1.81414">
        <ele>139</ele>
        <time>2023-06-06T08:23:27Z</time>
      </trkpt>
      <trkpt lat="49.06003" lon="1.81391">
        <ele>143</ele>
        <time>2023-06-06T08:25:31Z</time>
      </trkpt>
      <trkpt lat="49.06073" lon="1.81409">
        <ele>147</ele>
        <time>2023-06-06T08:27:06Z</time>
      </trkpt>
      <trkpt lat="49.06175" lon="1.81457">
        <ele>155</ele>
        <time>2023-06-06T08:29:28Z</time>
      </trkpt>
      <trkpt lat="49.06201" lon="1.81479">
        <ele>155</ele>
        <time>2023-06-06T08:30:08Z</time>
      </trkpt>
    </trkseg>
  </trk>
</gpx>